sensor_id;sensor_type;location;lat;lon;timestamp;P1;durP1;ratioP1;P2;durP2;ratioP2
25569;SDS011;17955;45.542;9.238;2022-07-01T00:02:07;2.80;;;0.90;;
25569;SDS011;17955;45.542;9.238;2022-07-01T00:04:36;4.47;;;1.42;;
25569;SDS011;17955;45.542;9.238;2022-07-01T00:07:21;7.35;;;1.60;;
25569;SDS011;17955;45.542;9.238;2022-07-01T00:09:48;4.88;;;1.15;;
25569;SDS011;17955;45.542;9.238;2022-07-01T00:12:15;2.45;;;1.02;;
25569;SDS011;17955;45.542;9.238;2022-07-01T00:14:42;5.03;;;1.58;;
25569;SDS011;17955;45.542;9.238;2022-07-01T00:17:09;4.53;;;1.30;;
25569;SDS011;17955;45.542;9.238;2022-07-01T00:19:38;6.10;;;1.92;;
25569;SDS011;17955;45.542;9.238;2022-07-01T00:22:05;3.78;;;1.73;;
25569;SDS011;17955;45.542;9.238;2022-07-01T00:24:32;7.20;;;1.63;;
25569;SDS011;17955;45.542;9.238;2022-07-01T00:26:59;6.78;;;1.80;;
25569;SDS011;17955;45.542;9.238;2022-07-01T00:29:26;4.82;;;1.55;;
25569;SDS011;17955;45.542;9.238;2022-07-01T00:31:53;7.88;;;1.80;;
25569;SDS011;17955;45.542;9.238;2022-07-01T00:34:20;5.32;;;1.50;;
25569;SDS011;17955;45.542;9.238;2022-07-01T00:36:48;5.97;;;1.35;;
25569;SDS011;17955;45.542;9.238;2022-07-01T00:39:15;6.22;;;1.67;;
25569;SDS011;17955;45.542;9.238;2022-07-01T00:41:42;4.65;;;1.42;;
25569;SDS011;17955;45.542;9.238;2022-07-01T00:44:15;3.63;;;1.20;;
25569;SDS011;17955;45.542;9.238;2022-07-01T00:46:43;6.80;;;1.30;;
25569;SDS011;17955;45.542;9.238;2022-07-01T00:49:10;8.35;;;2.50;;
25569;SDS011;17955;45.542;9.238;2022-07-01T00:51:37;9.18;;;1.20;;
25569;SDS011;17955;45.542;9.238;2022-07-01T00:54:06;4.22;;;1.02;;
25569;SDS011;17955;45.542;9.238;2022-07-01T00:56:33;4.55;;;0.90;;
25569;SDS011;17955;45.542;9.238;2022-07-01T00:59:01;3.78;;;1.00;;
25569;SDS011;17955;45.542;9.238;2022-07-01T01:01:28;3.10;;;0.80;;
25569;SDS011;17955;45.542;9.238;2022-07-01T01:03:55;2.78;;;0.70;;
25569;SDS011;17955;45.542;9.238;2022-07-01T01:06:23;4.93;;;1.55;;
25569;SDS011;17955;45.542;9.238;2022-07-01T01:08:50;3.22;;;1.00;;
25569;SDS011;17955;45.542;9.238;2022-07-01T01:11:18;3.40;;;1.00;;
25569;SDS011;17955;45.542;9.238;2022-07-01T01:13:46;5.55;;;0.90;;
25569;SDS011;17955;45.542;9.238;2022-07-01T01:16:17;8.38;;;1.15;;
25569;SDS011;17955;45.542;9.238;2022-07-01T01:18:44;4.43;;;0.90;;
25569;SDS011;17955;45.542;9.238;2022-07-01T01:21:13;3.25;;;1.10;;
25569;SDS011;17955;45.542;9.238;2022-07-01T01:23:40;2.47;;;0.80;;
25569;SDS011;17955;45.542;9.238;2022-07-01T01:26:17;4.20;;;1.13;;
25569;SDS011;17955;45.542;9.238;2022-07-01T01:28:46;2.75;;;0.95;;
25569;SDS011;17955;45.542;9.238;2022-07-01T01:31:13;3.78;;;0.95;;
25569;SDS011;17955;45.542;9.238;2022-07-01T01:33:41;4.45;;;0.85;;
25569;SDS011;17955;45.542;9.238;2022-07-01T01:36:08;4.10;;;0.80;;
25569;SDS011;17955;45.542;9.238;2022-07-01T01:38:36;3.03;;;1.20;;
25569;SDS011;17955;45.542;9.238;2022-07-01T01:41:04;3.53;;;1.00;;
25569;SDS011;17955;45.542;9.238;2022-07-01T01:43:34;5.18;;;1.30;;
25569;SDS011;17955;45.542;9.238;2022-07-01T01:46:01;12.45;;;1.00;;
25569;SDS011;17955;45.542;9.238;2022-07-01T01:48:28;1.77;;;1.00;;
25569;SDS011;17955;45.542;9.238;2022-07-01T01:50:55;4.38;;;1.25;;
25569;SDS011;17955;45.542;9.238;2022-07-01T01:53:23;5.50;;;1.52;;
25569;SDS011;17955;45.542;9.238;2022-07-01T01:55:51;4.80;;;1.02;;
25569;SDS011;17955;45.542;9.238;2022-07-01T01:58:18;4.80;;;1.15;;
25569;SDS011;17955;45.542;9.238;2022-07-01T02:00:45;5.43;;;1.30;;
25569;SDS011;17955;45.542;9.238;2022-07-01T02:03:12;4.18;;;1.13;;
25569;SDS011;17955;45.542;9.238;2022-07-01T02:05:39;5.78;;;1.15;;
25569;SDS011;17955;45.542;9.238;2022-07-01T02:08:07;4.70;;;1.35;;
25569;SDS011;17955;45.542;9.238;2022-07-01T02:10:34;3.47;;;1.15;;
25569;SDS011;17955;45.542;9.238;2022-07-01T02:13:02;7.40;;;1.25;;
25569;SDS011;17955;45.542;9.238;2022-07-01T02:15:29;4.32;;;1.20;;
25569;SDS011;17955;45.542;9.238;2022-07-01T02:17:56;3.03;;;1.27;;
25569;SDS011;17955;45.542;9.238;2022-07-01T02:20:23;4.57;;;1.50;;
25569;SDS011;17955;45.542;9.238;2022-07-01T02:22:50;3.70;;;1.50;;
25569;SDS011;17955;45.542;9.238;2022-07-01T02:25:18;3.33;;;1.50;;
25569;SDS011;17955;45.542;9.238;2022-07-01T02:27:45;6.70;;;1.63;;
25569;SDS011;17955;45.542;9.238;2022-07-01T02:30:14;4.65;;;1.90;;
25569;SDS011;17955;45.542;9.238;2022-07-01T02:32:41;10.85;;;1.60;;
25569;SDS011;17955;45.542;9.238;2022-07-01T02:35:08;5.90;;;1.27;;
25569;SDS011;17955;45.542;9.238;2022-07-01T02:37:35;2.97;;;1.60;;
25569;SDS011;17955;45.542;9.238;2022-07-01T02:40:03;6.95;;;1.80;;
25569;SDS011;17955;45.542;9.238;2022-07-01T02:42:31;5.43;;;2.25;;
25569;SDS011;17955;45.542;9.238;2022-07-01T02:45:01;4.15;;;1.40;;
25569;SDS011;17955;45.542;9.238;2022-07-01T02:47:33;7.00;;;1.73;;
25569;SDS011;17955;45.542;9.238;2022-07-01T02:50:01;8.70;;;2.72;;
25569;SDS011;17955;45.542;9.238;2022-07-01T02:52:28;3.78;;;1.83;;
25569;SDS011;17955;45.542;9.238;2022-07-01T02:54:56;8.43;;;1.80;;
25569;SDS011;17955;45.542;9.238;2022-07-01T02:57:23;8.27;;;1.92;;
25569;SDS011;17955;45.542;9.238;2022-07-01T02:59:49;8.20;;;1.98;;
25569;SDS011;17955;45.542;9.238;2022-07-01T03:02:17;5.82;;;2.00;;
25569;SDS011;17955;45.542;9.238;2022-07-01T03:04:46;6.13;;;1.70;;
25569;SDS011;17955;45.542;9.238;2022-07-01T03:07:13;8.07;;;2.45;;
25569;SDS011;17955;45.542;9.238;2022-07-01T03:09:40;7.55;;;2.45;;
25569;SDS011;17955;45.542;9.238;2022-07-01T03:12:08;6.18;;;2.40;;
25569;SDS011;17955;45.542;9.238;2022-07-01T03:14:51;10.35;;;2.03;;
25569;SDS011;17955;45.542;9.238;2022-07-01T03:17:18;6.95;;;2.03;;
25569;SDS011;17955;45.542;9.238;2022-07-01T03:19:46;4.72;;;2.10;;
25569;SDS011;17955;45.542;9.238;2022-07-01T03:22:13;4.28;;;1.70;;
25569;SDS011;17955;45.542;9.238;2022-07-01T03:24:41;5.80;;;2.08;;
25569;SDS011;17955;45.542;9.238;2022-07-01T03:27:08;6.65;;;2.10;;
25569;SDS011;17955;45.542;9.238;2022-07-01T03:29:35;3.47;;;1.75;;
25569;SDS011;17955;45.542;9.238;2022-07-01T03:32:02;5.45;;;1.85;;
25569;SDS011;17955;45.542;9.238;2022-07-01T03:34:29;12.48;;;2.53;;
25569;SDS011;17955;45.542;9.238;2022-07-01T03:36:58;8.75;;;2.47;;
25569;SDS011;17955;45.542;9.238;2022-07-01T03:39:25;6.40;;;2.05;;
25569;SDS011;17955;45.542;9.238;2022-07-01T03:41:52;6.57;;;2.10;;
25569;SDS011;17955;45.542;9.238;2022-07-01T03:44:19;5.93;;;2.83;;
25569;SDS011;17955;45.542;9.238;2022-07-01T03:46:46;7.22;;;1.98;;
25569;SDS011;17955;45.542;9.238;2022-07-01T03:49:13;5.28;;;2.00;;
25569;SDS011;17955;45.542;9.238;2022-07-01T03:51:40;8.27;;;1.70;;
25569;SDS011;17955;45.542;9.238;2022-07-01T03:54:09;5.43;;;1.85;;
25569;SDS011;17955;45.542;9.238;2022-07-01T03:56:53;8.63;;;2.17;;
25569;SDS011;17955;45.542;9.238;2022-07-01T03:59:20;6.13;;;1.65;;
25569;SDS011;17955;45.542;9.238;2022-07-01T04:01:47;4.22;;;2.22;;
25569;SDS011;17955;45.542;9.238;2022-07-01T04:04:14;7.10;;;1.63;;
25569;SDS011;17955;45.542;9.238;2022-07-01T04:06:41;4.90;;;1.88;;
25569;SDS011;17955;45.542;9.238;2022-07-01T04:09:11;6.15;;;1.85;;
25569;SDS011;17955;45.542;9.238;2022-07-01T04:11:39;7.88;;;2.10;;
25569;SDS011;17955;45.542;9.238;2022-07-01T04:14:06;9.75;;;2.15;;
25569;SDS011;17955;45.542;9.238;2022-07-01T04:16:34;11.45;;;3.70;;
25569;SDS011;17955;45.542;9.238;2022-07-01T04:19:01;8.75;;;3.58;;
25569;SDS011;17955;45.542;9.238;2022-07-01T04:21:28;7.43;;;3.70;;
25569;SDS011;17955;45.542;9.238;2022-07-01T04:24:16;10.82;;;4.45;;
25569;SDS011;17955;45.542;9.238;2022-07-01T04:26:43;10.38;;;2.70;;
25569;SDS011;17955;45.542;9.238;2022-07-01T04:29:10;7.18;;;3.42;;
25569;SDS011;17955;45.542;9.238;2022-07-01T04:31:38;14.48;;;3.55;;
25569;SDS011;17955;45.542;9.238;2022-07-01T04:34:05;7.82;;;2.90;;
25569;SDS011;17955;45.542;9.238;2022-07-01T04:36:33;9.18;;;3.90;;
25569;SDS011;17955;45.542;9.238;2022-07-01T04:39:00;8.68;;;3.33;;
25569;SDS011;17955;45.542;9.238;2022-07-01T04:41:29;7.13;;;4.05;;
25569;SDS011;17955;45.542;9.238;2022-07-01T04:44:16;9.88;;;3.70;;
25569;SDS011;17955;45.542;9.238;2022-07-01T04:46:43;12.02;;;4.18;;
25569;SDS011;17955;45.542;9.238;2022-07-01T04:49:11;14.40;;;5.43;;
25569;SDS011;17955;45.542;9.238;2022-07-01T04:51:38;11.25;;;5.28;;
25569;SDS011;17955;45.542;9.238;2022-07-01T04:54:05;12.98;;;5.43;;
25569;SDS011;17955;45.542;9.238;2022-07-01T04:56:35;16.35;;;6.35;;
25569;SDS011;17955;45.542;9.238;2022-07-01T04:59:03;16.83;;;6.28;;
25569;SDS011;17955;45.542;9.238;2022-07-01T05:01:31;12.50;;;6.80;;
25569;SDS011;17955;45.542;9.238;2022-07-01T05:03:58;14.27;;;7.45;;
25569;SDS011;17955;45.542;9.238;2022-07-01T05:06:25;18.02;;;8.00;;
25569;SDS011;17955;45.542;9.238;2022-07-01T05:08:52;15.68;;;8.30;;
25569;SDS011;17955;45.542;9.238;2022-07-01T05:11:20;14.77;;;7.22;;
25569;SDS011;17955;45.542;9.238;2022-07-01T05:13:48;14.10;;;7.95;;
25569;SDS011;17955;45.542;9.238;2022-07-01T05:16:15;14.65;;;7.40;;
25569;SDS011;17955;45.542;9.238;2022-07-01T05:18:42;16.48;;;7.68;;
25569;SDS011;17955;45.542;9.238;2022-07-01T05:21:27;16.38;;;8.13;;
25569;SDS011;17955;45.542;9.238;2022-07-01T05:24:11;20.27;;;8.65;;
25569;SDS011;17955;45.542;9.238;2022-07-01T05:26:38;16.90;;;10.30;;
25569;SDS011;17955;45.542;9.238;2022-07-01T05:29:07;17.23;;;9.38;;
25569;SDS011;17955;45.542;9.238;2022-07-01T05:31:34;21.50;;;10.65;;
25569;SDS011;17955;45.542;9.238;2022-07-01T05:34:01;18.50;;;10.82;;
25569;SDS011;17955;45.542;9.238;2022-07-01T05:36:28;19.30;;;10.15;;
25569;SDS011;17955;45.542;9.238;2022-07-01T05:38:55;15.18;;;8.35;;
25569;SDS011;17955;45.542;9.238;2022-07-01T05:41:22;24.60;;;11.02;;
25569;SDS011;17955;45.542;9.238;2022-07-01T05:43:49;22.00;;;11.10;;
25569;SDS011;17955;45.542;9.238;2022-07-01T05:46:17;23.08;;;13.07;;
25569;SDS011;17955;45.542;9.238;2022-07-01T05:48:44;26.17;;;12.23;;
25569;SDS011;17955;45.542;9.238;2022-07-01T05:51:11;31.73;;;13.27;;
25569;SDS011;17955;45.542;9.238;2022-07-01T05:53:38;29.88;;;14.25;;
25569;SDS011;17955;45.542;9.238;2022-07-01T05:56:06;30.67;;;14.35;;
25569;SDS011;17955;45.542;9.238;2022-07-01T05:58:33;48.47;;;14.70;;
25569;SDS011;17955;45.542;9.238;2022-07-01T06:01:00;33.53;;;15.38;;
25569;SDS011;17955;45.542;9.238;2022-07-01T06:03:28;25.48;;;14.38;;
25569;SDS011;17955;45.542;9.238;2022-07-01T06:05:55;34.25;;;15.88;;
25569;SDS011;17955;45.542;9.238;2022-07-01T06:08:23;31.40;;;15.10;;
25569;SDS011;17955;45.542;9.238;2022-07-01T06:10:50;24.88;;;15.80;;
25569;SDS011;17955;45.542;9.238;2022-07-01T06:13:17;27.80;;;16.05;;
25569;SDS011;17955;45.542;9.238;2022-07-01T06:15:44;25.88;;;15.82;;
25569;SDS011;17955;45.542;9.238;2022-07-01T06:18:11;22.45;;;15.15;;
25569;SDS011;17955;45.542;9.238;2022-07-01T06:20:39;27.02;;;17.98;;
25569;SDS011;17955;45.542;9.238;2022-07-01T06:23:06;26.77;;;16.00;;
25569;SDS011;17955;45.542;9.238;2022-07-01T06:25:33;29.83;;;17.35;;
25569;SDS011;17955;45.542;9.238;2022-07-01T06:28:00;33.30;;;17.80;;
25569;SDS011;17955;45.542;9.238;2022-07-01T06:30:27;28.48;;;19.13;;
25569;SDS011;17955;45.542;9.238;2022-07-01T06:32:54;37.00;;;19.60;;
25569;SDS011;17955;45.542;9.238;2022-07-01T06:35:21;29.90;;;17.80;;
25569;SDS011;17955;45.542;9.238;2022-07-01T06:37:50;36.92;;;17.92;;
25569;SDS011;17955;45.542;9.238;2022-07-01T06:40:17;28.40;;;17.70;;
25569;SDS011;17955;45.542;9.238;2022-07-01T06:42:44;29.35;;;18.38;;
25569;SDS011;17955;45.542;9.238;2022-07-01T06:45:11;26.40;;;18.27;;
25569;SDS011;17955;45.542;9.238;2022-07-01T06:47:38;26.67;;;16.67;;
25569;SDS011;17955;45.542;9.238;2022-07-01T06:50:05;30.17;;;19.08;;
25569;SDS011;17955;45.542;9.238;2022-07-01T06:52:33;29.13;;;19.98;;
25569;SDS011;17955;45.542;9.238;2022-07-01T06:55:02;28.40;;;17.35;;
25569;SDS011;17955;45.542;9.238;2022-07-01T06:57:29;28.65;;;17.80;;
25569;SDS011;17955;45.542;9.238;2022-07-01T06:59:56;34.38;;;17.05;;
25569;SDS011;17955;45.542;9.238;2022-07-01T07:02:23;37.65;;;19.10;;
25569;SDS011;17955;45.542;9.238;2022-07-01T07:04:50;25.48;;;18.08;;
25569;SDS011;17955;45.542;9.238;2022-07-01T07:07:22;26.40;;;17.77;;
25569;SDS011;17955;45.542;9.238;2022-07-01T07:09:49;34.03;;;17.92;;
25569;SDS011;17955;45.542;9.238;2022-07-01T07:12:17;23.05;;;15.23;;
25569;SDS011;17955;45.542;9.238;2022-07-01T07:14:44;29.17;;;16.98;;
25569;SDS011;17955;45.542;9.238;2022-07-01T07:17:11;31.48;;;19.00;;
25569;SDS011;17955;45.542;9.238;2022-07-01T07:19:38;38.00;;;16.50;;
25569;SDS011;17955;45.542;9.238;2022-07-01T07:22:05;23.42;;;15.65;;
25569;SDS011;17955;45.542;9.238;2022-07-01T07:24:32;26.80;;;15.63;;
25569;SDS011;17955;45.542;9.238;2022-07-01T07:26:59;31.10;;;16.10;;
25569;SDS011;17955;45.542;9.238;2022-07-01T07:29:28;28.30;;;15.82;;
25569;SDS011;17955;45.542;9.238;2022-07-01T07:31:55;29.52;;;15.93;;
25569;SDS011;17955;45.542;9.238;2022-07-01T07:34:22;28.00;;;15.77;;
25569;SDS011;17955;45.542;9.238;2022-07-01T07:36:49;26.73;;;16.20;;
25569;SDS011;17955;45.542;9.238;2022-07-01T07:39:16;23.20;;;14.25;;
25569;SDS011;17955;45.542;9.238;2022-07-01T07:41:43;29.85;;;14.60;;
25569;SDS011;17955;45.542;9.238;2022-07-01T07:44:10;22.38;;;14.13;;
25569;SDS011;17955;45.542;9.238;2022-07-01T07:46:38;27.52;;;14.10;;
25569;SDS011;17955;45.542;9.238;2022-07-01T07:49:05;27.27;;;14.95;;
25569;SDS011;17955;45.542;9.238;2022-07-01T07:51:33;29.17;;;13.23;;
25569;SDS011;17955;45.542;9.238;2022-07-01T07:54:00;26.30;;;15.45;;
25569;SDS011;17955;45.542;9.238;2022-07-01T07:56:28;23.98;;;15.50;;
25569;SDS011;17955;45.542;9.238;2022-07-01T07:58:55;22.60;;;13.10;;
25569;SDS011;17955;45.542;9.238;2022-07-01T08:01:22;17.58;;;8.10;;
25569;SDS011;17955;45.542;9.238;2022-07-01T08:03:50;12.82;;;4.15;;
25569;SDS011;17955;45.542;9.238;2022-07-01T08:06:17;8.07;;;2.95;;
25569;SDS011;17955;45.542;9.238;2022-07-01T08:08:44;5.57;;;2.70;;
25569;SDS011;17955;45.542;9.238;2022-07-01T08:11:11;10.90;;;2.90;;
25569;SDS011;17955;45.542;9.238;2022-07-01T08:13:39;7.43;;;2.47;;
25569;SDS011;17955;45.542;9.238;2022-07-01T08:16:05;5.18;;;2.10;;
25569;SDS011;17955;45.542;9.238;2022-07-01T08:18:33;9.10;;;2.53;;
25569;SDS011;17955;45.542;9.238;2022-07-01T08:21:02;6.47;;;2.42;;
25569;SDS011;17955;45.542;9.238;2022-07-01T08:23:29;9.40;;;3.00;;
25569;SDS011;17955;45.542;9.238;2022-07-01T08:25:56;5.18;;;2.42;;
25569;SDS011;17955;45.542;9.238;2022-07-01T08:28:23;4.30;;;2.10;;
25569;SDS011;17955;45.542;9.238;2022-07-01T08:30:50;8.48;;;1.60;;
25569;SDS011;17955;45.542;9.238;2022-07-01T08:33:17;9.55;;;2.53;;
25569;SDS011;17955;45.542;9.238;2022-07-01T08:35:44;5.10;;;2.10;;
25569;SDS011;17955;45.542;9.238;2022-07-01T08:38:13;5.28;;;1.58;;
25569;SDS011;17955;45.542;9.238;2022-07-01T08:40:40;6.50;;;1.45;;
25569;SDS011;17955;45.542;9.238;2022-07-01T08:43:07;6.90;;;1.88;;
25569;SDS011;17955;45.542;9.238;2022-07-01T08:45:34;4.68;;;1.30;;
25569;SDS011;17955;45.542;9.238;2022-07-01T08:48:03;5.30;;;1.50;;
25569;SDS011;17955;45.542;9.238;2022-07-01T08:50:31;3.78;;;1.52;;
25569;SDS011;17955;45.542;9.238;2022-07-01T08:53:00;5.88;;;1.92;;
25569;SDS011;17955;45.542;9.238;2022-07-01T08:55:29;8.68;;;2.45;;
25569;SDS011;17955;45.542;9.238;2022-07-01T08:57:57;5.15;;;2.08;;
25569;SDS011;17955;45.542;9.238;2022-07-01T09:00:30;4.32;;;1.60;;
25569;SDS011;17955;45.542;9.238;2022-07-01T09:02:59;5.47;;;1.35;;
25569;SDS011;17955;45.542;9.238;2022-07-01T09:05:28;6.68;;;1.50;;
25569;SDS011;17955;45.542;9.238;2022-07-01T09:07:57;9.18;;;1.88;;
25569;SDS011;17955;45.542;9.238;2022-07-01T09:10:25;4.55;;;1.50;;
25569;SDS011;17955;45.542;9.238;2022-07-01T09:12:59;6.53;;;1.98;;
25569;SDS011;17955;45.542;9.238;2022-07-01T09:15:31;6.00;;;2.10;;
25569;SDS011;17955;45.542;9.238;2022-07-01T09:18:02;4.60;;;1.50;;
25569;SDS011;17955;45.542;9.238;2022-07-01T09:20:30;6.70;;;1.83;;
25569;SDS011;17955;45.542;9.238;2022-07-01T09:22:59;3.45;;;1.50;;
25569;SDS011;17955;45.542;9.238;2022-07-01T09:25:28;4.20;;;1.35;;
25569;SDS011;17955;45.542;9.238;2022-07-01T09:28:07;4.07;;;1.50;;
25569;SDS011;17955;45.542;9.238;2022-07-01T09:30:38;4.72;;;1.45;;
25569;SDS011;17955;45.542;9.238;2022-07-01T09:33:06;5.45;;;1.30;;
25569;SDS011;17955;45.542;9.238;2022-07-01T09:35:34;6.28;;;1.80;;
25569;SDS011;17955;45.542;9.238;2022-07-01T09:38:02;6.30;;;1.50;;
25569;SDS011;17955;45.542;9.238;2022-07-01T09:40:46;5.40;;;1.88;;
25569;SDS011;17955;45.542;9.238;2022-07-01T09:43:20;6.70;;;1.65;;
25569;SDS011;17955;45.542;9.238;2022-07-01T09:45:49;10.70;;;1.42;;
25569;SDS011;17955;45.542;9.238;2022-07-01T09:48:21;10.23;;;1.40;;
25569;SDS011;17955;45.542;9.238;2022-07-01T09:50:49;6.70;;;1.95;;
25569;SDS011;17955;45.542;9.238;2022-07-01T09:53:17;4.57;;;1.55;;
25569;SDS011;17955;45.542;9.238;2022-07-01T09:55:44;10.60;;;2.58;;
25569;SDS011;17955;45.542;9.238;2022-07-01T09:58:11;5.68;;;1.58;;
25569;SDS011;17955;45.542;9.238;2022-07-01T10:00:39;3.10;;;1.30;;
25569;SDS011;17955;45.542;9.238;2022-07-01T10:03:07;8.68;;;1.60;;
25569;SDS011;17955;45.542;9.238;2022-07-01T10:08:32;10.60;;;1.90;;
25569;SDS011;17955;45.542;9.238;2022-07-01T10:11:18;3.50;;;1.73;;
25569;SDS011;17955;45.542;9.238;2022-07-01T10:14:13;6.20;;;1.42;;
25569;SDS011;17955;45.542;9.238;2022-07-01T10:16:44;4.25;;;1.75;;
25569;SDS011;17955;45.542;9.238;2022-07-01T10:19:26;5.13;;;1.85;;
25569;SDS011;17955;45.542;9.238;2022-07-01T10:21:55;9.70;;;2.08;;
25569;SDS011;17955;45.542;9.238;2022-07-01T10:24:27;5.95;;;2.00;;
25569;SDS011;17955;45.542;9.238;2022-07-01T10:26:58;4.03;;;1.70;;
25569;SDS011;17955;45.542;9.238;2022-07-01T10:29:28;6.10;;;1.88;;
25569;SDS011;17955;45.542;9.238;2022-07-01T10:32:01;3.20;;;1.33;;
25569;SDS011;17955;45.542;9.238;2022-07-01T10:34:38;6.70;;;1.63;;
25569;SDS011;17955;45.542;9.238;2022-07-01T10:37:07;5.40;;;1.63;;
25569;SDS011;17955;45.542;9.238;2022-07-01T10:42:27;7.90;;;1.42;;
25569;SDS011;17955;45.542;9.238;2022-07-01T10:44:58;3.38;;;1.40;;
25569;SDS011;17955;45.542;9.238;2022-07-01T10:47:28;4.05;;;1.48;;
25569;SDS011;17955;45.542;9.238;2022-07-01T10:49:57;3.38;;;1.23;;
25569;SDS011;17955;45.542;9.238;2022-07-01T10:52:25;6.28;;;1.42;;
25569;SDS011;17955;45.542;9.238;2022-07-01T10:54:53;7.45;;;1.85;;
25569;SDS011;17955;45.542;9.238;2022-07-01T10:57:23;3.97;;;1.50;;
25569;SDS011;17955;45.542;9.238;2022-07-01T10:59:54;5.60;;;1.25;;
25569;SDS011;17955;45.542;9.238;2022-07-01T11:02:23;4.00;;;1.70;;
25569;SDS011;17955;45.542;9.238;2022-07-01T11:04:52;4.13;;;2.33;;
25569;SDS011;17955;45.542;9.238;2022-07-01T11:07:23;4.15;;;1.75;;
25569;SDS011;17955;45.542;9.238;2022-07-01T11:09:51;5.00;;;1.88;;
25569;SDS011;17955;45.542;9.238;2022-07-01T11:12:19;6.43;;;1.50;;
25569;SDS011;17955;45.542;9.238;2022-07-01T11:14:48;4.70;;;1.40;;
25569;SDS011;17955;45.542;9.238;2022-07-01T11:17:15;3.58;;;1.40;;
25569;SDS011;17955;45.542;9.238;2022-07-01T11:19:47;4.28;;;1.38;;
25569;SDS011;17955;45.542;9.238;2022-07-01T11:22:18;7.32;;;1.88;;
25569;SDS011;17955;45.542;9.238;2022-07-01T11:24:45;13.07;;;2.47;;
25569;SDS011;17955;45.542;9.238;2022-07-01T11:27:17;8.57;;;1.50;;
25569;SDS011;17955;45.542;9.238;2022-07-01T11:29:44;9.77;;;1.70;;
25569;SDS011;17955;45.542;9.238;2022-07-01T11:32:11;3.83;;;1.55;;
25569;SDS011;17955;45.542;9.238;2022-07-01T11:34:38;7.63;;;1.85;;
25569;SDS011;17955;45.542;9.238;2022-07-01T11:37:08;8.80;;;1.60;;
25569;SDS011;17955;45.542;9.238;2022-07-01T11:39:51;4.85;;;1.60;;
25569;SDS011;17955;45.542;9.238;2022-07-01T11:42:29;7.32;;;1.80;;
25569;SDS011;17955;45.542;9.238;2022-07-01T11:44:56;14.10;;;2.17;;
25569;SDS011;17955;45.542;9.238;2022-07-01T11:47:24;9.88;;;2.50;;
25569;SDS011;17955;45.542;9.238;2022-07-01T11:49:52;3.65;;;1.42;;
25569;SDS011;17955;45.542;9.238;2022-07-01T11:52:20;7.88;;;1.63;;
25569;SDS011;17955;45.542;9.238;2022-07-01T11:54:48;7.38;;;1.90;;
25569;SDS011;17955;45.542;9.238;2022-07-01T11:57:18;9.50;;;1.80;;
25569;SDS011;17955;45.542;9.238;2022-07-01T11:59:47;8.43;;;1.73;;
25569;SDS011;17955;45.542;9.238;2022-07-01T12:02:16;9.38;;;1.85;;
25569;SDS011;17955;45.542;9.238;2022-07-01T12:04:45;6.68;;;1.80;;
25569;SDS011;17955;45.542;9.238;2022-07-01T12:07:12;6.60;;;1.50;;
25569;SDS011;17955;45.542;9.238;2022-07-01T12:09:41;7.35;;;1.92;;
25569;SDS011;17955;45.542;9.238;2022-07-01T12:12:14;4.28;;;1.45;;
25569;SDS011;17955;45.542;9.238;2022-07-01T12:14:48;5.90;;;1.80;;
25569;SDS011;17955;45.542;9.238;2022-07-01T12:17:17;4.72;;;1.42;;
25569;SDS011;17955;45.542;9.238;2022-07-01T12:19:45;9.52;;;1.67;;
25569;SDS011;17955;45.542;9.238;2022-07-01T12:22:13;5.20;;;1.70;;
25569;SDS011;17955;45.542;9.238;2022-07-01T12:24:43;4.05;;;1.92;;
25569;SDS011;17955;45.542;9.238;2022-07-01T12:27:10;3.58;;;1.42;;
25569;SDS011;17955;45.542;9.238;2022-07-01T12:29:52;3.42;;;1.63;;
25569;SDS011;17955;45.542;9.238;2022-07-01T12:32:20;6.38;;;2.08;;
25569;SDS011;17955;45.542;9.238;2022-07-01T12:34:49;3.60;;;1.52;;
25569;SDS011;17955;45.542;9.238;2022-07-01T12:37:18;6.68;;;1.77;;
25569;SDS011;17955;45.542;9.238;2022-07-01T12:39:47;6.68;;;1.55;;
25569;SDS011;17955;45.542;9.238;2022-07-01T12:42:19;6.72;;;1.70;;
25569;SDS011;17955;45.542;9.238;2022-07-01T12:44:47;3.97;;;1.67;;
25569;SDS011;17955;45.542;9.238;2022-07-01T12:47:17;5.13;;;1.48;;
25569;SDS011;17955;45.542;9.238;2022-07-01T12:49:45;5.18;;;1.40;;
25569;SDS011;17955;45.542;9.238;2022-07-01T12:52:25;11.52;;;1.67;;
25569;SDS011;17955;45.542;9.238;2022-07-01T12:54:54;4.38;;;1.40;;
25569;SDS011;17955;45.542;9.238;2022-07-01T12:57:30;4.97;;;1.55;;
25569;SDS011;17955;45.542;9.238;2022-07-01T12:59:57;6.72;;;1.83;;
25569;SDS011;17955;45.542;9.238;2022-07-01T13:02:26;6.70;;;1.70;;
25569;SDS011;17955;45.542;9.238;2022-07-01T13:04:53;8.38;;;1.92;;
25569;SDS011;17955;45.542;9.238;2022-07-01T13:07:20;5.63;;;1.50;;
25569;SDS011;17955;45.542;9.238;2022-07-01T13:09:47;5.20;;;1.65;;
25569;SDS011;17955;45.542;9.238;2022-07-01T13:12:14;6.30;;;2.15;;
25569;SDS011;17955;45.542;9.238;2022-07-01T13:14:41;5.70;;;2.05;;
25569;SDS011;17955;45.542;9.238;2022-07-01T13:17:09;4.25;;;1.90;;
25569;SDS011;17955;45.542;9.238;2022-07-01T13:19:37;3.28;;;1.65;;
25569;SDS011;17955;45.542;9.238;2022-07-01T13:22:04;8.55;;;1.70;;
25569;SDS011;17955;45.542;9.238;2022-07-01T13:24:31;3.65;;;1.52;;
25569;SDS011;17955;45.542;9.238;2022-07-01T13:26:58;3.45;;;1.67;;
25569;SDS011;17955;45.542;9.238;2022-07-01T13:29:25;6.88;;;1.60;;
25569;SDS011;17955;45.542;9.238;2022-07-01T13:31:52;4.65;;;2.00;;
25569;SDS011;17955;45.542;9.238;2022-07-01T13:34:19;5.57;;;1.65;;
25569;SDS011;17955;45.542;9.238;2022-07-01T13:36:48;5.93;;;1.80;;
25569;SDS011;17955;45.542;9.238;2022-07-01T13:39:15;6.85;;;1.58;;
25569;SDS011;17955;45.542;9.238;2022-07-01T13:41:42;5.32;;;1.77;;
25569;SDS011;17955;45.542;9.238;2022-07-01T13:44:09;5.43;;;1.70;;
25569;SDS011;17955;45.542;9.238;2022-07-01T13:46:36;8.30;;;1.85;;
25569;SDS011;17955;45.542;9.238;2022-07-01T13:49:03;4.20;;;1.55;;
25569;SDS011;17955;45.542;9.238;2022-07-01T13:51:30;2.97;;;1.33;;
25569;SDS011;17955;45.542;9.238;2022-07-01T13:53:59;5.25;;;1.42;;
25569;SDS011;17955;45.542;9.238;2022-07-01T13:56:26;4.18;;;1.50;;
25569;SDS011;17955;45.542;9.238;2022-07-01T13:58:53;5.07;;;1.90;;
25569;SDS011;17955;45.542;9.238;2022-07-01T14:01:21;4.70;;;1.73;;
25569;SDS011;17955;45.542;9.238;2022-07-01T14:03:49;3.45;;;1.63;;
25569;SDS011;17955;45.542;9.238;2022-07-01T14:06:16;5.05;;;2.00;;
25569;SDS011;17955;45.542;9.238;2022-07-01T14:08:43;5.53;;;1.88;;
25569;SDS011;17955;45.542;9.238;2022-07-01T14:11:12;9.25;;;1.75;;
25569;SDS011;17955;45.542;9.238;2022-07-01T14:13:40;8.38;;;1.75;;
25569;SDS011;17955;45.542;9.238;2022-07-01T14:16:08;5.82;;;1.65;;
25569;SDS011;17955;45.542;9.238;2022-07-01T14:18:35;10.10;;;2.22;;
25569;SDS011;17955;45.542;9.238;2022-07-01T14:21:03;10.50;;;2.47;;
25569;SDS011;17955;45.542;9.238;2022-07-01T14:23:32;4.82;;;1.80;;
25569;SDS011;17955;45.542;9.238;2022-07-01T14:25:59;9.13;;;2.17;;
25569;SDS011;17955;45.542;9.238;2022-07-01T14:28:28;7.57;;;1.70;;
25569;SDS011;17955;45.542;9.238;2022-07-01T14:30:55;4.38;;;1.80;;
25569;SDS011;17955;45.542;9.238;2022-07-01T14:33:22;7.22;;;2.10;;
25569;SDS011;17955;45.542;9.238;2022-07-01T14:35:49;5.07;;;1.83;;
25569;SDS011;17955;45.542;9.238;2022-07-01T14:38:16;4.63;;;1.45;;
25569;SDS011;17955;45.542;9.238;2022-07-01T14:40:43;6.63;;;2.00;;
25569;SDS011;17955;45.542;9.238;2022-07-01T14:43:10;5.40;;;1.80;;
25569;SDS011;17955;45.542;9.238;2022-07-01T14:45:39;9.68;;;2.08;;
25569;SDS011;17955;45.542;9.238;2022-07-01T14:48:07;3.65;;;1.58;;
25569;SDS011;17955;45.542;9.238;2022-07-01T14:50:34;7.90;;;1.95;;
25569;SDS011;17955;45.542;9.238;2022-07-01T14:53:02;4.45;;;1.73;;
25569;SDS011;17955;45.542;9.238;2022-07-01T14:55:29;5.30;;;1.50;;